Time;durP1;ratioP1;P1;durP2;ratioP2;P2;SDS_P1;SDS_P2;PMS_P1;PMS_P2;Temp;Humidity;BMP_temperature;BMP_pressure;BME280_temperature;BME280_humidity;BME280_pressure;Samples;Min_cycle;Max_cycle;Signal;HPM_P1;HPM_P2
2021/01/21 00:01:59;;;;;;;2.28;1.40;;;10.80;86.90;;;;;;4985288;28;20506;-42
2021/01/21 00:04:25;;;;;;;2.05;1.55;;;10.80;86.90;;;;;;4985944;28;20034;-44
2021/01/21 00:06:50;;;;;;;1.85;1.20;;;10.80;86.90;;;;;;4984985;28;20460;-41
2021/01/21 00:09:22;;;;;;;3.17;1.30;;;10.80;86.70;;;;;;4985380;28;20022;-42
2021/01/21 00:11:47;;;;;;;4.05;1.35;;;10.80;86.60;;;;;;4985430;28;20027;-42
2021/01/21 00:14:13;;;;;;;2.47;1.30;;;10.90;86.50;;;;;;4985033;28;20474;-42
2021/01/21 00:16:47;;;;;;;3.33;1.40;;;10.90;86.30;;;;;;4985659;28;20034;-42
2021/01/21 00:19:13;;;;;;;3.97;1.25;;;10.90;86.20;;;;;;4985093;28;20189;-43
2021/01/21 00:21:38;;;;;;;3.72;1.10;;;10.90;86.10;;;;;;4985199;28;20213;-42
2021/01/21 00:24:04;;;;;;;3.65;1.10;;;10.90;86.10;;;;;;4985168;28;20038;-42
2021/01/21 00:26:30;;;;;;;1.80;1.23;;;10.90;86.70;;;;;;4984578;28;20077;-44
2021/01/21 00:28:58;;;;;;;1.88;1.20;;;10.90;86.20;;;;;;4985016;28;20031;-43
2021/01/21 00:31:24;;;;;;;1.65;1.10;;;10.90;86.20;;;;;;4984938;28;20026;-41
2021/01/21 00:33:49;;;;;;;2.17;1.10;;;10.90;86.00;;;;;;4984437;28;20077;-42
2021/01/21 00:36:15;;;;;;;2.65;1.30;;;10.90;86.10;;;;;;4984667;28;20030;-43
2021/01/21 00:38:41;;;;;;;2.28;1.25;;;10.90;86.00;;;;;;4985213;28;20026;-41
2021/01/21 00:41:15;;;;;;;3.70;1.50;;;10.80;85.80;;;;;;4984827;28;20049;-44
2021/01/21 00:43:47;;;;;;;1.80;1.60;;;10.90;86.20;;;;;;4984885;28;20128;-42
2021/01/21 00:46:15;;;;;;;2.28;1.23;;;10.80;86.00;;;;;;4974692;28;20407;-46
2021/01/21 00:48:41;;;;;;;2.78;1.20;;;10.80;86.00;;;;;;4984544;28;20126;-44
2021/01/21 00:51:07;;;;;;;2.35;1.33;;;10.80;85.90;;;;;;4985259;28;20094;-44
2021/01/21 00:53:32;;;;;;;1.95;1.25;;;10.90;85.90;;;;;;4985009;28;20129;-41
2021/01/21 00:55:58;;;;;;;2.17;1.20;;;10.90;86.00;;;;;;4984272;28;20018;-46
2021/01/21 00:58:23;;;;;;;1.85;1.15;;;10.90;86.00;;;;;;4984739;28;20030;-42
2021/01/21 01:00:49;;;;;;;3.80;1.20;;;10.90;86.00;;;;;;4984622;28;20022;-42
2021/01/21 01:03:14;;;;;;;1.80;1.20;;;11.00;85.70;;;;;;4984383;28;20057;-42
2021/01/21 01:05:40;;;;;;;1.52;1.00;;;11.10;85.40;;;;;;4984520;28;20134;-43
2021/01/21 01:08:08;;;;;;;3.90;1.13;;;11.20;85.30;;;;;;4985020;28;20026;-42
2021/01/21 01:10:34;;;;;;;3.30;1.10;;;11.20;85.50;;;;;;4984029;28;20034;-43
2021/01/21 01:12:59;;;;;;;2.00;1.08;;;11.30;84.50;;;;;;4984401;28;20054;-43
2021/01/21 01:15:28;;;;;;;1.20;1.00;;;11.30;84.10;;;;;;4984536;28;20113;-42
2021/01/21 01:17:54;;;;;;;1.90;1.20;;;11.20;84.00;;;;;;4984439;28;20109;-42
2021/01/21 01:20:19;;;;;;;2.80;1.20;;;11.30;84.00;;;;;;4984203;28;20479;-42
2021/01/21 01:22:52;;;;;;;3.80;1.30;;;11.20;83.70;;;;;;4983957;28;20126;-41
2021/01/21 01:25:19;;;;;;;2.65;1.15;;;11.20;83.90;;;;;;4984206;28;20144;-42
2021/01/21 01:27:44;;;;;;;3.17;1.25;;;11.20;84.00;;;;;;4984767;28;20019;-42
2021/01/21 01:30:14;;;;;;;3.40;1.20;;;11.30;83.90;;;;;;4984680;28;20044;-41
2021/01/21 01:32:39;;;;;;;2.50;1.20;;;11.30;83.70;;;;;;4984271;28;20787;-43
2021/01/21 01:35:07;;;;;;;4.18;1.50;;;11.30;83.50;;;;;;4984461;28;20030;-42
2021/01/21 01:37:32;;;;;;;3.72;1.08;;;11.30;83.00;;;;;;4983883;28;20246;-43
2021/01/21 01:39:58;;;;;;;3.63;1.38;;;11.40;83.20;;;;;;4984439;28;20191;-42
2021/01/21 01:42:24;;;;;;;2.47;1.00;;;11.40;82.60;;;;;;4983943;28;20122;-42
2021/01/21 01:44:49;;;;;;;2.35;1.05;;;11.50;82.40;;;;;;4983615;28;20058;-42
2021/01/21 01:47:15;;;;;;;2.50;1.20;;;11.50;82.10;;;;;;4986995;28;20752;-41
2021/01/21 01:49:41;;;;;;;2.63;1.20;;;11.50;81.90;;;;;;4987884;28;20034;-42
2021/01/21 01:52:10;;;;;;;1.50;0.93;;;11.50;81.80;;;;;;4987082;28;20028;-42
2021/01/21 01:54:39;;;;;;;1.10;0.90;;;11.60;81.70;;;;;;4987763;28;20026;-43
2021/01/21 01:57:05;;;;;;;2.45;1.40;;;11.60;81.50;;;;;;4987737;28;20034;-42
2021/01/21 01:59:33;;;;;;;2.17;1.10;;;11.70;81.10;;;;;;4986946;28;20569;-42
2021/01/21 02:01:59;;;;;;;3.63;1.25;;;11.70;80.70;;;;;;4987236;28;20568;-42
2021/01/21 02:04:25;;;;;;;1.85;1.10;;;11.80;80.70;;;;;;4987176;28;20030;-42
2021/01/21 02:06:50;;;;;;;2.90;1.13;;;11.80;81.00;;;;;;4987352;28;20037;-43
2021/01/21 02:09:16;;;;;;;1.35;1.00;;;11.80;80.80;;;;;;4986943;28;20026;-43
2021/01/21 02:11:53;;;;;;;3.25;1.17;;;11.80;80.70;;;;;;4987323;28;20031;-43
2021/01/21 02:14:51;;;;;;;2.08;1.10;;;11.80;79.50;;;;;;4978147;28;20505;-43
2021/01/21 02:17:43;;;;;;;2.10;1.10;;;11.90;79.80;;;;;;4986976;28;20031;-41
2021/01/21 02:20:11;;;;;;;3.05;1.20;;;11.90;79.30;;;;;;4983984;28;20183;-43
2021/01/21 02:23:19;;;;;;;2.28;1.13;;;11.90;79.30;;;;;;4986881;28;20030;-42
2021/01/21 02:25:53;;;;;;;2.50;1.08;;;11.90;80.70;;;;;;4986770;28;20068;-43
2021/01/21 02:28:49;;;;;;;2.80;1.38;;;11.70;81.60;;;;;;4987126;28;20124;-45
2021/01/21 02:31:38;;;;;;;2.35;1.20;;;11.50;83.20;;;;;;4986902;28;20034;-42
2021/01/21 02:34:06;;;;;;;2.58;1.05;;;11.40;83.80;;;;;;4986785;28;20038;-42
2021/01/21 02:36:41;;;;;;;4.20;1.27;;;11.30;83.90;;;;;;4987324;28;20034;-42
2021/01/21 02:39:10;;;;;;;3.08;1.10;;;11.40;84.90;;;;;;4987083;28;20053;-42
2021/01/21 02:41:36;;;;;;;2.33;1.20;;;11.40;84.60;;;;;;4986174;28;20037;-40
2021/01/21 02:44:02;;;;;;;1.92;1.02;;;11.40;85.10;;;;;;4986428;28;20185;-41
2021/01/21 02:46:31;;;;;;;1.38;1.10;;;11.20;85.70;;;;;;4987157;28;20187;-41
2021/01/21 02:48:58;;;;;;;1.90;1.15;;;11.10;86.30;;;;;;4986001;28;20090;-42
2021/01/21 02:51:38;;;;;;;1.70;1.00;;;11.00;86.90;;;;;;4986610;28;20023;-40
2021/01/21 02:54:13;;;;;;;3.45;1.40;;;11.00;87.00;;;;;;4986088;28;20026;-42
2021/01/21 02:56:41;;;;;;;4.72;1.50;;;11.10;87.10;;;;;;4986677;28;20065;-41
2021/01/21 02:59:10;;;;;;;1.85;1.20;;;11.10;86.70;;;;;;4986341;28;20081;-39
2021/01/21 03:01:37;;;;;;;1.92;1.00;;;11.20;86.60;;;;;;4986027;28;20027;-41
2021/01/21 03:04:04;;;;;;;2.10;1.50;;;11.20;86.40;;;;;;4986418;28;20042;-42
2021/01/21 03:06:33;;;;;;;1.98;1.20;;;11.30;86.00;;;;;;4986271;28;20054;-41
2021/01/21 03:09:03;;;;;;;2.08;1.10;;;11.40;85.70;;;;;;4985688;28;20348;-42
2021/01/21 03:11:29;;;;;;;2.17;1.17;;;11.40;85.40;;;;;;4986333;28;20366;-42
2021/01/21 03:13:54;;;;;;;1.98;1.02;;;11.50;85.30;;;;;;4985895;28;20491;-42
2021/01/21 03:16:20;;;;;;;1.10;0.70;;;11.60;85.20;;;;;;4986034;28;20022;-41
2021/01/21 03:18:50;;;;;;;1.60;0.82;;;11.60;85.20;;;;;;4986225;28;20390;-44
2021/01/21 03:21:35;;;;;;;2.70;1.20;;;11.60;85.30;;;;;;4985805;28;20033;-43
2021/01/21 03:24:04;;;;;;;2.13;0.90;;;11.70;85.60;;;;;;4984975;28;20076;-43
2021/01/21 03:26:42;;;;;;;2.47;1.05;;;11.60;85.70;;;;;;4985956;28;20156;-43
2021/01/21 03:29:07;;;;;;;3.35;1.23;;;11.70;85.90;;;;;;4985927;28;20097;-43
2021/01/21 03:31:33;;;;;;;3.13;1.13;;;11.70;86.10;;;;;;4985305;28;20352;-42
2021/01/21 03:34:00;;;;;;;4.75;1.10;;;11.70;86.40;;;;;;4985677;28;20128;-42
2021/01/21 03:36:26;;;;;;;1.02;0.93;;;11.70;86.40;;;;;;4981405;28;20710;-41
2021/01/21 03:38:51;;;;;;;1.58;1.10;;;11.80;86.70;;;;;;4985633;28;20038;-44
2021/01/21 03:41:16;;;;;;;1.00;0.82;;;11.70;87.10;;;;;;4984835;28;20078;-42
2021/01/21 03:43:42;;;;;;;2.35;0.80;;;11.60;88.20;;;;;;4985605;28;20117;-42
2021/01/21 03:46:07;;;;;;;2.55;1.13;;;11.50;89.20;;;;;;4985115;28;20057;-42
2021/01/21 03:48:33;;;;;;;1.20;0.90;;;11.40;89.70;;;;;;4985533;28;20054;-42
2021/01/21 03:50:58;;;;;;;2.40;1.13;;;11.40;89.90;;;;;;4984789;28;20034;-42
2021/01/21 03:53:24;;;;;;;3.08;1.10;;;11.40;89.60;;;;;;4985561;28;20026;-42
2021/01/21 03:55:49;;;;;;;0.73;0.73;;;11.50;89.00;;;;;;4985734;28;20056;-42
2021/01/21 03:58:15;;;;;;;3.30;0.93;;;11.60;88.60;;;;;;4985979;28;20777;-44
2021/01/21 04:00:40;;;;;;;1.05;0.80;;;11.70;87.80;;;;;;4985401;28;20026;-47
2021/01/21 04:03:06;;;;;;;1.55;0.90;;;11.90;87.60;;;;;;4985778;28;20057;-43
2021/01/21 04:05:31;;;;;;;2.97;1.58;;;11.90;87.30;;;;;;4985355;28;20053;-49
2021/01/21 04:07:57;;;;;;;1.33;0.90;;;12.00;87.10;;;;;;4985234;28;20030;-44
2021/01/21 04:10:22;;;;;;;1.27;0.80;;;12.00;87.90;;;;;;4984759;28;20030;-42
2021/01/21 04:12:50;;;;;;;2.08;0.88;;;11.90;89.00;;;;;;4983871;28;20079;-43
2021/01/21 04:15:16;;;;;;;2.92;1.10;;;11.90;89.30;;;;;;4985298;28;20029;-42
2021/01/21 04:17:44;;;;;;;1.67;0.70;;;11.80;90.10;;;;;;4984661;28;20023;-42
2021/01/21 04:20:10;;;;;;;1.42;0.88;;;11.60;90.40;;;;;;4984457;28;20026;-43
2021/01/21 04:22:36;;;;;;;2.80;0.90;;;11.60;90.70;;;;;;4984355;28;20026;-41
2021/01/21 04:25:01;;;;;;;5.72;1.58;;;11.50;90.80;;;;;;4984837;28;20057;-43
2021/01/21 04:27:33;;;;;;;3.95;1.10;;;11.50;91.80;;;;;;4984877;28;20747;-43
2021/01/21 04:29:58;;;;;;;2.78;0.70;;;10.90;90.70;;;;;;4965919;28;20053;-43
2021/01/21 04:32:27;;;;;;;2.45;0.60;;;10.10;91.40;;;;;;4979385;28;20031;-43
2021/01/21 04:34:52;;;;;;;1.80;0.60;;;9.50;92.50;;;;;;4984700;28;20061;-43
2021/01/21 04:37:18;;;;;;;2.15;0.60;;;9.00;93.00;;;;;;4985461;28;20049;-42
2021/01/21 04:39:43;;;;;;;1.85;0.57;;;8.60;93.40;;;;;;4984270;28;20493;-45
2021/01/21 04:42:09;;;;;;;1.38;0.55;;;8.40;93.60;;;;;;4984676;28;20447;-43
2021/01/21 04:44:34;;;;;;;1.90;0.57;;;8.30;93.90;;;;;;4984735;28;20153;-42
2021/01/21 04:47:02;;;;;;;2.78;0.70;;;8.20;93.90;;;;;;4984378;28;20038;-43
2021/01/21 04:49:29;;;;;;;1.15;0.60;;;8.00;93.70;;;;;;4985225;28;20125;-43
2021/01/21 04:52:03;;;;;;;4.43;0.98;;;7.90;93.80;;;;;;4984362;28;20069;-43
2021/01/21 04:54:39;;;;;;;2.10;0.55;;;7.90;93.90;;;;;;4974050;28;20030;-43
2021/01/21 04:57:10;;;;;;;3.58;0.82;;;7.80;93.90;;;;;;4984470;28;20022;-43
2021/01/21 04:59:36;;;;;;;3.25;0.80;;;7.70;94.00;;;;;;4984438;28;20081;-43
2021/01/21 05:02:08;;;;;;;2.17;0.73;;;7.70;94.10;;;;;;4984207;28;20022;-43
2021/01/21 05:04:34;;;;;;;2.72;0.70;;;7.60;94.20;;;;;;4984485;28;20042;-43
2021/01/21 05:07:00;;;;;;;2.83;0.80;;;7.60;94.20;;;;;;4984272;28;20544;-43
2021/01/21 05:09:27;;;;;;;2.45;0.70;;;7.50;94.30;;;;;;4984608;28;20662;-44
2021/01/21 05:11:53;;;;;;;3.35;0.80;;;7.40;94.40;;;;;;4984000;28;20038;-43
2021/01/21 05:14:19;;;;;;;4.00;1.02;;;7.40;94.50;;;;;;4984972;28;20516;-43
2021/01/21 05:16:45;;;;;;;2.80;0.68;;;7.30;94.40;;;;;;4983925;28;20458;-43
2021/01/21 05:19:18;;;;;;;3.80;0.82;;;7.30;94.50;;;;;;4983002;28;20053;-43
2021/01/21 05:21:44;;;;;;;1.48;0.68;;;7.30;94.40;;;;;;4967039;28;20019;-43
2021/01/21 05:24:12;;;;;;;2.10;0.70;;;7.20;94.30;;;;;;4982797;28;20704;-43
2021/01/21 05:26:46;;;;;;;3.10;0.70;;;7.20;94.30;;;;;;4988271;28;20026;-43
2021/01/21 05:29:12;;;;;;;3.13;0.60;;;7.20;94.20;;;;;;4987969;28;20076;-43
2021/01/21 05:31:40;;;;;;;2.25;0.68;;;7.20;94.20;;;;;;4988139;28;20066;-43
2021/01/21 05:34:11;;;;;;;5.15;0.98;;;7.20;94.10;;;;;;4988544;28;20426;-43
2021/01/21 05:36:38;;;;;;;2.58;0.80;;;7.20;94.10;;;;;;4987545;28;20108;-43
2021/01/21 05:39:06;;;;;;;2.88;0.70;;;7.20;94.00;;;;;;4988060;28;20488;-43
2021/01/21 05:41:34;;;;;;;7.93;0.77;;;7.20;93.90;;;;;;4988528;28;20113;-43
2021/01/21 05:44:07;;;;;;;2.40;0.80;;;7.30;93.90;;;;;;4987134;28;20453;-42
2021/01/21 05:46:35;;;;;;;;;;;7.30;93.90;;;;;;4988585;28;20034;-43
2021/01/21 05:49:01;;;;;;;3.88;1.05;;;7.30;93.80;;;;;;4987849;28;20330;-43
2021/01/21 05:51:29;;;;;;;5.13;0.82;;;7.30;93.70;;;;;;4987836;28;20026;-43
2021/01/21 05:53:56;;;;;;;3.08;0.70;;;7.30;93.70;;;;;;4987548;28;20022;-43
2021/01/21 05:56:25;;;;;;;2.60;0.77;;;7.40;93.60;;;;;;4988031;28;20029;-45
2021/01/21 05:58:54;;;;;;;2.85;0.98;;;7.40;93.60;;;;;;4987329;28;20128;-43
2021/01/21 06:01:24;;;;;;;5.07;0.90;;;7.40;93.50;;;;;;4987722;28;20122;-43
2021/01/21 06:03:50;;;;;;;6.03;1.10;;;7.40;93.40;;;;;;4987092;28;20045;-43
2021/01/21 06:06:15;;;;;;;3.15;1.00;;;7.50;93.40;;;;;;4987227;28;20042;-43
2021/01/21 06:08:42;;;;;;;6.90;1.05;;;7.40;93.30;;;;;;4987192;28;20037;-42
2021/01/21 06:11:08;;;;;;;2.42;0.90;;;7.50;93.40;;;;;;4986989;28;20073;-42
2021/01/21 06:13:40;;;;;;;5.25;1.00;;;7.50;93.40;;;;;;4987330;28;20513;-44
2021/01/21 06:16:07;;;;;;;5.50;1.00;;;7.50;93.30;;;;;;4987226;28;20092;-44
2021/01/21 06:18:33;;;;;;;4.88;1.02;;;7.40;93.20;;;;;;4986977;28;20387;-43
2021/01/21 06:21:00;;;;;;;3.75;1.13;;;7.40;93.20;;;;;;4986843;28;20068;-43
2021/01/21 06:23:27;;;;;;;4.00;0.70;;;7.40;93.20;;;;;;4987480;28;20023;-43
2021/01/21 06:25:57;;;;;;;3.42;1.10;;;7.40;93.20;;;;;;4985943;28;20070;-43
2021/01/21 06:28:23;;;;;;;5.50;1.05;;;7.40;93.30;;;;;;4987344;28;20026;-43
2021/01/21 06:30:53;;;;;;;7.53;1.45;;;7.30;93.20;;;;;;4986701;28;20026;-39
2021/01/21 06:33:22;;;;;;;5.03;1.00;;;7.30;93.10;;;;;;4985692;28;20102;-43
2021/01/21 06:35:58;;;;;;;6.40;1.00;;;7.30;92.90;;;;;;4986517;28;20086;-43
2021/01/21 06:38:27;;;;;;;4.55;1.20;;;7.30;92.50;;;;;;4987503;28;20018;-42
2021/01/21 06:40:53;;;;;;;9.85;1.20;;;7.30;92.50;;;;;;4985760;28;20030;-43
2021/01/21 06:43:31;;;;;;;7.13;1.13;;;7.30;92.40;;;;;;4986913;28;20473;-43
2021/01/21 06:45:57;;;;;;;4.82;1.10;;;7.30;91.90;;;;;;4986356;28;20042;-44
2021/01/21 06:48:23;;;;;;;4.60;1.10;;;7.30;91.80;;;;;;4986704;28;20026;-44
2021/01/21 06:50:50;;;;;;;7.57;1.45;;;7.30;91.50;;;;;;4986133;28;20026;-42
2021/01/21 06:53:17;;;;;;;7.95;1.48;;;7.20;91.40;;;;;;4986322;28;20030;-43
2021/01/21 06:55:48;;;;;;;3.75;1.13;;;7.30;91.10;;;;;;4986370;28;20030;-43
2021/01/21 06:58:13;;;;;;;8.55;1.50;;;7.30;90.90;;;;;;4980583;28;20037;-42
2021/01/21 07:00:45;;;;;;;9.00;1.63;;;7.20;90.90;;;;;;4973969;28;20367;-45
2021/01/21 07:03:30;;;;;;;4.95;1.30;;;7.30;90.70;;;;;;4986384;28;20367;-43
2021/01/21 07:06:00;;;;;;;5.95;1.20;;;7.20;90.70;;;;;;4985549;28;20431;-43
2021/01/21 07:08:27;;;;;;;3.97;1.10;;;7.20;90.50;;;;;;4985551;28;20023;-43
2021/01/21 07:11:00;;;;;;;3.95;1.58;;;7.20;90.60;;;;;;4985850;28;20030;-43
2021/01/21 07:13:29;;;;;;;3.58;1.20;;;7.20;90.60;;;;;;4986063;28;20449;-43
2021/01/21 07:15:58;;;;;;;4.90;1.17;;;7.20;90.50;;;;;;4985483;28;20030;-43
2021/01/21 07:18:36;;;;;;;7.32;1.75;;;7.30;90.40;;;;;;4985469;28;20089;-42
2021/01/21 07:21:12;;;;;;;4.18;1.15;;;7.20;90.20;;;;;;4986352;28;20026;-43
2021/01/21 07:23:54;;;;;;;3.17;1.33;;;7.20;90.10;;;;;;4984904;28;20035;-42
2021/01/21 07:26:30;;;;;;;6.40;1.58;;;7.20;90.00;;;;;;4986748;28;20097;-43
2021/01/21 07:29:09;;;;;;;4.00;1.10;;;7.10;90.00;;;;;;4986052;28;20022;-42
2021/01/21 07:31:50;;;;;;;6.93;1.60;;;7.00;90.00;;;;;;4986554;28;20176;-43
2021/01/21 07:34:26;;;;;;;5.93;1.65;;;6.90;90.10;;;;;;4986310;28;20033;-42
2021/01/21 07:37:11;;;;;;;5.28;1.55;;;6.80;90.10;;;;;;4986135;28;20034;-43
2021/01/21 07:40:07;;;;;;;5.18;1.30;;;6.70;90.20;;;;;;4986854;28;20045;-42
2021/01/21 07:42:38;;;;;;;8.25;1.85;;;6.60;90.30;;;;;;4977288;28;20129;-42
2021/01/21 07:45:13;;;;;;;3.38;1.38;;;6.60;90.30;;;;;;4986423;28;20760;-41
2021/01/21 07:47:43;;;;;;;9.02;1.50;;;6.50;90.40;;;;;;4986081;28;20653;-43
2021/01/21 07:50:24;;;;;;;4.05;1.17;;;6.50;90.30;;;;;;4985692;28;20483;-42
2021/01/21 07:52:58;;;;;;;7.40;1.70;;;6.50;90.30;;;;;;4983056;28;20041;-41
2021/01/21 07:55:30;;;;;;;6.43;1.50;;;6.50;90.20;;;;;;4981666;28;20021;-42
2021/01/21 07:58:14;;;;;;;3.25;1.20;;;6.50;90.20;;;;;;4979377;28;20130;-40
2021/01/21 08:00:43;;;;;;;5.43;1.38;;;6.40;90.20;;;;;;4974675;28;20145;-43
2021/01/21 08:03:12;;;;;;;6.88;1.55;;;6.50;90.50;;;;;;4985366;28;20046;-42
2021/01/21 08:05:37;;;;;;;5.68;1.40;;;6.50;90.30;;;;;;4985400;28;20043;-42
2021/01/21 08:08:04;;;;;;;3.20;1.20;;;6.50;90.00;;;;;;4986099;28;20038;-41
2021/01/21 08:10:32;;;;;;;6.43;1.63;;;6.50;90.00;;;;;;4986113;28;20014;-42
2021/01/21 08:13:05;;;;;;;5.53;1.50;;;6.50;90.00;;;;;;4986570;28;20066;-43
2021/01/21 08:15:32;;;;;;;8.68;1.55;;;6.40;89.90;;;;;;4986490;28;20050;-43
2021/01/21 08:17:58;;;;;;;5.25;1.50;;;6.40;89.90;;;;;;4985779;28;20121;-43
2021/01/21 08:20:28;;;;;;;5.93;1.30;;;6.40;90.00;;;;;;4986312;28;20130;-40
2021/01/21 08:22:59;;;;;;;5.75;1.58;;;6.40;90.00;;;;;;4985430;28;20054;-43
2021/01/21 08:25:49;;;;;;;5.22;1.50;;;6.50;90.00;;;;;;4984818;28;20181;-42
2021/01/21 08:28:22;;;;;;;9.10;1.92;;;6.50;90.00;;;;;;4972708;28;20437;-43
2021/01/21 08:30:49;;;;;;;6.45;2.55;;;6.60;89.90;;;;;;4984043;28;20117;-43
2021/01/21 08:33:28;;;;;;;5.25;1.30;;;6.60;89.80;;;;;;4985521;28;20524;-44
2021/01/21 08:36:02;;;;;;;6.68;2.17;;;6.60;89.80;;;;;;4984943;28;20031;-43
2021/01/21 08:38:32;;;;;;;8.00;1.90;;;6.60;89.80;;;;;;4985420;28;20089;-44
2021/01/21 08:40:58;;;;;;;7.95;2.03;;;6.60;89.80;;;;;;4985022;28;20105;-43
2021/01/21 08:43:25;;;;;;;4.93;1.52;;;6.60;89.90;;;;;;4985626;28;20625;-44
2021/01/21 08:45:51;;;;;;;6.40;1.50;;;6.60;90.00;;;;;;4982413;28;20054;-43
2021/01/21 08:48:29;;;;;;;10.55;1.92;;;6.60;90.00;;;;;;4984713;28;20100;-42
2021/01/21 08:50:55;;;;;;;6.47;1.55;;;6.60;90.00;;;;;;4984999;28;20112;-43
2021/01/21 08:53:27;;;;;;;6.85;1.88;;;6.70;90.00;;;;;;4985089;28;20037;-43
2021/01/21 08:55:57;;;;;;;9.70;1.75;;;6.70;90.00;;;;;;4984055;28;20525;-42
2021/01/21 08:58:31;;;;;;;6.70;1.60;;;6.70;90.00;;;;;;4985907;28;20493;-42
2021/01/21 09:01:11;;;;;;;4.97;1.55;;;6.70;90.00;;;;;;4984666;28;20028;-41
2021/01/21 09:03:40;;;;;;;3.53;1.52;;;6.80;90.00;;;;;;4985572;28;20105;-42
2021/01/21 09:06:07;;;;;;;4.68;1.75;;;6.80;90.00;;;;;;4984533;28;20761;-42
2021/01/21 09:08:43;;;;;;;5.93;1.40;;;6.90;90.00;;;;;;4984896;28;20022;-42
2021/01/21 09:11:27;;;;;;;5.93;1.60;;;6.90;90.10;;;;;;4985389;28;20027;-42
2021/01/21 09:13:53;;;;;;;4.60;1.33;;;6.90;90.10;;;;;;4984821;28;20030;-43
2021/01/21 09:16:19;;;;;;;4.80;1.20;;;6.90;90.10;;;;;;4983831;28;20081;-42
2021/01/21 09:18:46;;;;;;;6.15;1.45;;;7.00;90.20;;;;;;4983897;28;20038;-42
2021/01/21 09:21:16;;;;;;;7.40;1.30;;;7.00;90.30;;;;;;4984772;28;20042;-41
2021/01/21 09:23:41;;;;;;;8.98;1.60;;;7.00;90.40;;;;;;4983026;28;20042;-42
2021/01/21 09:26:14;;;;;;;8.18;2.10;;;7.10;90.50;;;;;;4977923;28;20492;-43
2021/01/21 09:28:56;;;;;;;5.75;1.80;;;7.10;90.60;;;;;;4984897;28;20062;-43
2021/01/21 09:31:23;;;;;;;6.90;1.80;;;7.20;90.60;;;;;;4985146;28;20050;-43
2021/01/21 09:33:50;;;;;;;7.80;1.48;;;7.20;90.70;;;;;;4984551;28;20368;-43
2021/01/21 09:36:16;;;;;;;5.40;1.80;;;7.20;90.70;;;;;;4985152;28;20056;-43
2021/01/21 09:38:41;;;;;;;5.20;1.60;;;7.30;90.90;;;;;;4984557;28;20054;-43
2021/01/21 09:41:07;;;;;;;10.02;1.80;;;7.30;90.80;;;;;;4976242;28;20031;-43
2021/01/21 09:43:33;;;;;;;10.07;1.90;;;7.30;90.80;;;;;;4981489;28;20347;-41
2021/01/21 09:45:58;;;;;;;10.88;1.75;;;7.40;90.80;;;;;;4970719;28;20421;-42
2021/01/21 09:48:24;;;;;;;6.55;1.42;;;7.50;90.80;;;;;;4984861;28;20026;-42
2021/01/21 09:50:53;;;;;;;7.75;1.70;;;7.60;90.80;;;;;;4984003;28;20554;-43
2021/01/21 09:53:22;;;;;;;6.90;1.80;;;7.60;90.70;;;;;;4985140;28;20031;-42
2021/01/21 09:55:47;;;;;;;7.38;1.40;;;7.70;90.70;;;;;;4984693;28;20058;-42
2021/01/21 09:58:13;;;;;;;7.82;1.48;;;7.80;90.70;;;;;;4984656;28;20107;-42
2021/01/21 10:00:39;;;;;;;9.18;2.42;;;7.80;90.60;;;;;;4984954;28;20499;-42
2021/01/21 10:03:04;;;;;;;6.30;1.50;;;7.90;90.60;;;;;;4984426;28;20023;-42
2021/01/21 10:05:30;;;;;;;6.57;1.45;;;8.00;90.50;;;;;;4984814;28;20049;-41
2021/01/21 10:07:56;;;;;;;6.88;1.50;;;8.10;90.40;;;;;;4985318;28;20022;-43
2021/01/21 10:10:22;;;;;;;8.68;1.83;;;8.20;90.20;;;;;;4987907;28;20066;-43
2021/01/21 10:12:47;;;;;;;6.45;2.20;;;8.30;90.20;;;;;;4980504;28;20030;-43
2021/01/21 10:15:15;;;;;;;7.65;1.75;;;8.40;90.00;;;;;;4982816;28;20053;-43
2021/01/21 10:17:40;;;;;;;7.75;1.80;;;8.50;90.00;;;;;;4987221;28;20125;-43
2021/01/21 10:20:09;;;;;;;6.18;1.83;;;8.60;89.60;;;;;;4988451;28;20064;-42
2021/01/21 10:22:35;;;;;;;5.05;1.48;;;8.70;89.60;;;;;;4988047;28;20026;-43
2021/01/21 10:25:00;;;;;;;5.18;1.30;;;8.70;89.40;;;;;;4987155;28;20065;-42
2021/01/21 10:27:29;;;;;;;7.88;1.80;;;8.70;89.30;;;;;;4987683;28;20122;-42
2021/01/21 10:29:56;;;;;;;8.07;1.65;;;8.80;89.40;;;;;;4987325;28;20078;-41
2021/01/21 10:32:22;;;;;;;6.43;1.70;;;8.80;89.30;;;;;;4987504;28;20038;-42
2021/01/21 10:34:48;;;;;;;5.05;1.40;;;8.90;89.20;;;;;;4987276;28;20077;-41
2021/01/21 10:37:13;;;;;;;5.63;1.38;;;8.90;89.00;;;;;;4988247;28;20096;-42
2021/01/21 10:39:39;;;;;;;5.70;1.40;;;8.90;88.70;;;;;;4986714;28;20378;-42
2021/01/21 10:42:05;;;;;;;4.55;1.27;;;8.90;88.70;;;;;;4987587;28;20105;-42
2021/01/21 10:44:30;;;;;;;8.07;1.63;;;8.90;88.40;;;;;;4987352;28;20517;-42
2021/01/21 10:46:55;;;;;;;8.20;1.50;;;8.90;88.50;;;;;;4986419;28;20504;-41
2021/01/21 10:49:21;;;;;;;6.15;1.23;;;8.80;88.50;;;;;;4987321;28;20761;-43
2021/01/21 10:51:56;;;;;;;5.30;1.52;;;8.80;88.50;;;;;;4987025;28;20018;-43
2021/01/21 10:54:22;;;;;;;4.70;1.40;;;8.80;88.60;;;;;;4987148;28;20124;-43
2021/01/21 10:56:52;;;;;;;6.93;1.20;;;8.80;88.60;;;;;;4987132;28;20019;-44
2021/01/21 10:59:18;;;;;;;4.18;1.38;;;8.70;88.50;;;;;;4987056;28;20058;-44
2021/01/21 11:01:43;;;;;;;8.43;2.08;;;8.70;88.70;;;;;;4986529;28;20123;-42
2021/01/21 11:04:09;;;;;;;5.22;1.42;;;8.70;88.60;;;;;;4987046;28;20026;-43
2021/01/21 11:06:34;;;;;;;3.78;1.23;;;8.70;88.60;;;;;;4986499;28;20474;-42
2021/01/21 11:09:00;;;;;;;4.25;1.30;;;8.70;88.50;;;;;;4987113;28;20390;-41
2021/01/21 11:11:25;;;;;;;6.15;1.50;;;8.80;88.50;;;;;;4987039;28;20104;-42
2021/01/21 11:13:53;;;;;;;5.22;1.67;;;8.80;88.40;;;;;;4986023;28;20418;-41
2021/01/21 11:16:19;;;;;;;3.47;1.20;;;8.80;88.30;;;;;;4987080;28;20512;-41
2021/01/21 11:18:45;;;;;;;6.22;1.23;;;8.80;88.20;;;;;;4986124;28;20062;-42
2021/01/21 11:21:10;;;;;;;3.70;1.13;;;8.80;88.30;;;;;;4986324;28;20034;-43
2021/01/21 11:23:35;;;;;;;6.85;1.20;;;8.80;88.30;;;;;;4983059;28;20018;-42
2021/01/21 11:26:01;;;;;;;2.85;1.20;;;8.80;88.40;;;;;;4978914;28;20053;-42
2021/01/21 11:28:26;;;;;;;4.63;1.45;;;8.80;88.30;;;;;;4986145;28;20038;-43
2021/01/21 11:30:53;;;;;;;3.10;1.17;;;8.80;88.20;;;;;;4985725;28;20019;-43
2021/01/21 11:33:21;;;;;;;4.30;1.50;;;8.80;88.20;;;;;;4986862;28;20164;-43
2021/01/21 11:35:47;;;;;;;5.32;1.20;;;8.80;88.10;;;;;;4985564;28;20019;-42
2021/01/21 11:38:15;;;;;;;4.80;1.48;;;8.80;88.20;;;;;;4986736;28;20571;-42
2021/01/21 11:40:41;;;;;;;3.75;1.33;;;8.80;88.40;;;;;;4986252;28;20026;-42
2021/01/21 11:43:07;;;;;;;5.13;1.10;;;8.80;88.40;;;;;;4985976;28;20026;-43
2021/01/21 11:45:33;;;;;;;4.10;1.13;;;8.90;88.50;;;;;;4986150;28;20504;-42
2021/01/21 11:47:58;;;;;;;5.85;1.58;;;8.90;88.30;;;;;;4986276;28;20122;-43
2021/01/21 11:50:24;;;;;;;4.97;1.30;;;9.00;87.90;;;;;;4986144;28;20386;-42
2021/01/21 11:52:49;;;;;;;5.75;1.80;;;9.00;87.90;;;;;;4984578;28;20430;-43
2021/01/21 11:55:15;;;;;;;4.95;1.50;;;9.00;87.70;;;;;;4986122;28;20112;-42
2021/01/21 11:57:44;;;;;;;3.80;1.30;;;9.10;88.40;;;;;;4985376;28;20161;-43
2021/01/21 12:00:13;;;;;;;6.43;1.20;;;9.10;87.50;;;;;;4986223;28;20018;-42
2021/01/21 12:02:40;;;;;;;7.38;1.23;;;9.20;87.40;;;;;;4985523;28;20049;-44
2021/01/21 12:05:06;;;;;;;6.28;1.23;;;9.20;87.20;;;;;;4986388;28;20474;-44
2021/01/21 12:07:32;;;;;;;3.72;1.10;;;9.20;87.20;;;;;;4985722;28;20022;-44
2021/01/21 12:09:58;;;;;;;3.85;1.10;;;9.30;87.30;;;;;;4985791;28;20360;-43
2021/01/21 12:12:23;;;;;;;3.85;1.60;;;9.40;86.90;;;;;;4985850;28;20030;-42
2021/01/21 12:14:49;;;;;;;7.05;1.45;;;9.40;86.50;;;;;;4985395;28;20101;-42
2021/01/21 12:17:15;;;;;;;4.30;1.40;;;9.50;86.60;;;;;;4985905;28;20201;-44
2021/01/21 12:19:41;;;;;;;3.00;1.20;;;9.50;86.30;;;;;;4985204;28;20101;-43
2021/01/21 12:22:06;;;;;;;6.28;1.75;;;9.50;86.10;;;;;;4985247;28;20447;-43
2021/01/21 12:24:32;;;;;;;6.68;1.38;;;9.50;86.00;;;;;;4984112;28;20061;-43
2021/01/21 12:26:58;;;;;;;5.60;1.35;;;9.50;86.20;;;;;;4985145;28;20596;-43
2021/01/21 12:29:26;;;;;;;4.03;1.30;;;9.50;86.10;;;;;;4985484;28;20030;-43
2021/01/21 12:31:52;;;;;;;5.07;1.48;;;9.50;86.20;;;;;;4983542;28;20026;-44
2021/01/21 12:34:17;;;;;;;4.38;1.45;;;9.50;86.30;;;;;;4984616;28;20027;-43
2021/01/21 12:36:43;;;;;;;4.00;1.20;;;9.50;86.10;;;;;;4984483;28;20478;-44
2021/01/21 12:39:08;;;;;;;6.15;1.40;;;9.50;85.90;;;;;;4983954;28;20105;-43
2021/01/21 12:41:34;;;;;;;5.85;1.52;;;9.50;85.80;;;;;;4984919;28;20040;-43
2021/01/21 12:44:00;;;;;;;7.72;2.00;;;9.50;85.90;;;;;;4983980;28;20502;-43
2021/01/21 12:46:28;;;;;;;4.72;1.77;;;9.40;85.70;;;;;;4984007;28;20468;-43
2021/01/21 12:48:54;;;;;;;4.25;1.88;;;9.40;85.70;;;;;;4983197;28;20034;-43
2021/01/21 12:51:20;;;;;;;5.60;1.55;;;9.30;85.70;;;;;;4984280;28;20482;-43
2021/01/21 12:53:45;;;;;;;5.32;1.30;;;9.30;85.90;;;;;;4983651;28;20037;-43
2021/01/21 12:56:11;;;;;;;4.53;1.50;;;9.20;85.70;;;;;;4985012;28;20109;-44
2021/01/21 12:58:36;;;;;;;5.20;1.55;;;9.10;86.00;;;;;;4983582;28;20450;-44
2021/01/21 13:01:02;;;;;;;3.05;1.70;;;9.10;86.30;;;;;;4983562;28;20034;-41